createdAt,value
2019-05-13T00:00:06.557Z,134.30
2019-05-13T00:00:44.390Z,142.20
2019-05-13T00:01:17.242Z,136.10
2019-05-13T00:01:54.009Z,135.30
2019-05-13T00:02:27.702Z,129.50
2019-05-13T00:03:03.573Z,107.50
2019-05-13T00:03:37.855Z,115.30
2019-05-13T00:04:14.101Z,126.30
2019-05-13T00:04:48.631Z,111.40
2019-05-13T00:05:23.808Z,115.10
2019-05-13T00:05:59.220Z,127.90
2019-05-13T00:06:34.578Z,140.00
2019-05-13T00:07:09.995Z,142.50
2019-05-13T00:07:45.168Z,127.50
2019-05-13T00:08:21.866Z,105.40
2019-05-13T00:08:55.748Z,105.60
2019-05-13T00:09:33.705Z,122.20
2019-05-13T00:10:06.803Z,118.90
2019-05-13T00:10:43.607Z,123.50
2019-05-13T00:11:17.374Z,118.50
2019-05-13T00:11:54.012Z,116.70
2019-05-13T00:12:28.143Z,128.70
2019-05-13T00:13:04.328Z,129.40
2019-05-13T00:13:38.609Z,123.80
2019-05-13T00:14:13.909Z,125.90
2019-05-13T00:14:49.178Z,122.50
2019-05-13T00:15:24.571Z,136.10
2019-05-13T00:15:59.893Z,131.80
2019-05-13T00:16:35.252Z,137.80
2019-05-13T00:17:10.435Z,131.70
2019-05-13T00:17:45.700Z,123.90
2019-05-13T00:18:23.347Z,128.20
2019-05-13T00:18:56.262Z,119.60
2019-05-13T00:19:33.735Z,129.10
2019-05-13T00:20:07.435Z,119.70
2019-05-13T00:20:44.368Z,136.80
2019-05-13T00:21:18.231Z,120.00
2019-05-13T00:21:54.585Z,108.80
2019-05-13T00:22:28.791Z,117.60
2019-05-13T00:23:04.223Z,136.10
2019-05-13T00:23:39.261Z,142.00
2019-05-13T00:24:14.528Z,126.80
2019-05-13T00:24:49.709Z,138.20
2019-05-13T00:25:24.768Z,137.10
2019-05-13T00:26:00.098Z,134.40
2019-05-13T00:26:35.556Z,124.40
2019-05-13T00:27:10.549Z,125.80
2019-05-13T00:27:45.829Z,121.20
2019-05-13T00:28:23.126Z,125.50
2019-05-13T00:28:56.370Z,138.20
2019-05-13T00:29:33.888Z,123.90
2019-05-13T00:30:06.933Z,124.60
2019-05-13T00:30:44.266Z,119.30
2019-05-13T00:31:17.464Z,132.00
2019-05-13T00:31:54.017Z,129.80
2019-05-13T00:32:28.121Z,130.30
2019-05-13T00:33:03.829Z,132.90
2019-05-13T00:33:38.969Z,136.90
2019-05-13T00:34:14.410Z,131.10
2019-05-13T00:34:49.423Z,133.50
2019-05-13T00:35:24.593Z,131.60
2019-05-13T00:35:59.916Z,127.50
2019-05-13T00:36:35.079Z,122.10
2019-05-13T00:37:11.772Z,129.90
2019-05-13T00:37:45.870Z,142.80
2019-05-13T00:38:21.133Z,144.30
2019-05-13T00:38:56.518Z,136.00
2019-05-13T00:39:33.398Z,115.90
2019-05-13T00:40:06.794Z,126.70
2019-05-13T00:40:44.082Z,128.90
2019-05-13T00:41:17.501Z,121.50
2019-05-13T00:41:53.179Z,103.10
2019-05-13T00:42:27.951Z,90.70
2019-05-13T00:43:03.767Z,112.70
2019-05-13T00:43:38.435Z,127.20
2019-05-13T00:44:14.227Z,127.30
2019-05-13T00:44:48.800Z,120.40
2019-05-13T00:45:24.462Z,108.30
2019-05-13T00:45:59.583Z,126.80
2019-05-13T00:46:34.775Z,139.80
2019-05-13T00:47:10.042Z,130.60
2019-05-13T00:47:45.441Z,125.90
2019-05-13T00:48:20.711Z,107.10
2019-05-13T00:48:56.011Z,99.70
2019-05-13T00:49:31.288Z,111.90
2019-05-13T00:50:06.580Z,133.20
2019-05-13T00:50:44.044Z,127.80
2019-05-13T00:51:17.191Z,122.00
2019-05-13T00:51:53.393Z,130.60
2019-05-13T00:52:27.752Z,129.20
2019-05-13T00:53:04.289Z,114.80
2019-05-13T00:53:38.501Z,120.20
2019-05-13T00:54:13.789Z,115.70
2019-05-13T00:54:49.055Z,107.30
2019-05-13T00:55:24.839Z,111.60
2019-05-13T00:56:00.234Z,111.20
2019-05-13T00:56:35.433Z,127.30
2019-05-13T00:57:10.594Z,122.80
2019-05-13T00:57:46.087Z,129.60
2019-05-13T00:58:21.454Z,118.60
2019-05-13T00:58:56.851Z,105.50
2019-05-13T00:59:33.940Z,100.30
2019-05-13T01:00:07.616Z,115.00
2019-05-13T01:00:44.369Z,125.10
2019-05-13T01:01:18.105Z,121.80
2019-05-13T01:01:53.441Z,124.10
2019-05-13T01:02:29.062Z,130.60
2019-05-13T01:03:04.449Z,145.60
2019-05-13T01:03:39.814Z,135.30
2019-05-13T01:04:15.114Z,134.60
2019-05-13T01:04:50.488Z,127.40
2019-05-13T01:05:25.782Z,115.80
2019-05-13T01:06:04.014Z,123.90
2019-05-13T01:06:36.903Z,113.00
2019-05-13T01:07:24.816Z,117.80
2019-05-13T01:07:47.678Z,116.10
2019-05-13T01:08:23.635Z,117.00
2019-05-13T01:08:58.359Z,122.10
2019-05-13T01:09:34.238Z,116.30
2019-05-13T01:10:09.344Z,125.40
2019-05-13T01:10:45.394Z,126.60
2019-05-13T01:11:20.353Z,138.80
2019-05-13T01:11:55.561Z,139.90
2019-05-13T01:12:30.531Z,147.90
2019-05-13T01:13:05.726Z,146.30
2019-05-13T01:13:43.195Z,140.70
2019-05-13T01:14:16.217Z,126.10
2019-05-13T01:14:53.315Z,111.20
2019-05-13T01:15:26.687Z,115.40
2019-05-13T01:16:03.774Z,129.40
2019-05-13T01:16:37.319Z,154.80
2019-05-13T01:17:14.165Z,134.90
2019-05-13T01:17:47.878Z,130.30
2019-05-13T01:18:23.384Z,129.10
2019-05-13T01:18:58.478Z,131.10
2019-05-13T01:19:34.171Z,151.00
2019-05-13T01:20:09.125Z,149.80
2019-05-13T01:20:44.242Z,139.90
2019-05-13T01:21:19.740Z,131.40
2019-05-13T01:21:55.035Z,130.70
2019-05-13T01:22:30.608Z,149.30
2019-05-13T01:23:05.738Z,147.10
2019-05-13T01:23:40.809Z,140.00
2019-05-13T01:24:15.995Z,135.00
2019-05-13T01:24:51.174Z,129.60
2019-05-13T01:25:26.588Z,136.20
2019-05-13T01:26:03.711Z,134.90
2019-05-13T01:26:37.077Z,132.90
2019-05-13T01:27:14.007Z,140.90
2019-05-13T01:27:47.555Z,130.00
2019-05-13T01:28:23.965Z,112.20
2019-05-13T01:28:58.022Z,116.20
2019-05-13T01:29:34.451Z,139.00
2019-05-13T01:30:08.493Z,116.90
2019-05-13T01:30:43.989Z,108.10
2019-05-13T01:31:19.108Z,133.00
2019-05-13T01:31:54.507Z,134.00
2019-05-13T01:32:29.576Z,130.20
2019-05-13T01:33:04.801Z,131.80
2019-05-13T01:33:39.853Z,113.90
2019-05-13T01:34:15.457Z,121.40
2019-05-13T01:34:50.842Z,136.30
2019-05-13T01:35:26.164Z,144.90
2019-05-13T01:36:01.364Z,134.20
2019-05-13T01:36:36.786Z,120.30
2019-05-13T01:37:13.247Z,124.90
2019-05-13T01:37:47.365Z,132.50
2019-05-13T01:38:24.113Z,124.90
2019-05-13T01:38:58.030Z,129.50
2019-05-13T01:39:34.934Z,128.00
2019-05-13T01:40:08.698Z,120.90
2019-05-13T01:40:44.226Z,137.80
2019-05-13T01:41:19.495Z,119.10
2019-05-13T01:41:55.061Z,120.30
2019-05-13T01:42:30.254Z,119.80
2019-05-13T01:43:05.529Z,122.40
2019-05-13T01:43:40.734Z,112.70
2019-05-13T01:44:16.036Z,141.30
2019-05-13T01:44:51.244Z,143.60
2019-05-13T01:45:26.451Z,140.10
2019-05-13T01:46:04.224Z,134.20
2019-05-13T01:46:37.257Z,136.90
2019-05-13T01:47:13.454Z,117.20
2019-05-13T01:47:47.956Z,116.70
2019-05-13T01:48:24.133Z,129.50
2019-05-13T01:48:58.727Z,121.50
2019-05-13T01:49:34.305Z,120.70
2019-05-13T01:50:09.692Z,127.60
2019-05-13T01:50:45.165Z,141.90
2019-05-13T01:51:20.590Z,130.30
2019-05-13T01:51:56.170Z,127.60
2019-05-13T01:52:31.552Z,128.00
2019-05-13T01:53:06.930Z,141.80
2019-05-13T01:53:43.881Z,136.80
2019-05-13T01:54:17.608Z,119.40
2019-05-13T01:54:54.367Z,114.10
2019-05-13T01:55:28.913Z,125.10
2019-05-13T01:56:04.151Z,118.40
2019-05-13T01:56:39.312Z,122.40
2019-05-13T01:57:14.502Z,135.70
2019-05-13T01:57:49.694Z,132.00
2019-05-13T01:58:24.873Z,129.30
2019-05-13T01:59:00.070Z,129.30
2019-05-13T01:59:35.253Z,121.40
2019-05-13T02:00:10.848Z,123.10
2019-05-13T02:00:46.222Z,128.40
2019-05-13T02:01:24.021Z,118.60
2019-05-13T02:01:57.326Z,124.80
2019-05-13T02:02:33.682Z,123.80
2019-05-13T02:03:08.299Z,124.50
2019-05-13T02:03:44.295Z,122.60
2019-05-13T02:04:18.776Z,108.50
2019-05-13T02:04:54.374Z,97.80
2019-05-13T02:05:29.651Z,112.30
2019-05-13T02:06:05.291Z,124.20
2019-05-13T02:06:40.363Z,124.00
2019-05-13T02:07:15.669Z,124.90
2019-05-13T02:07:59.639Z,115.60
2019-05-13T02:08:26.313Z,113.60
2019-05-13T02:09:03.818Z,106.90
2019-05-13T02:09:36.790Z,114.40
2019-05-13T02:10:14.308Z,113.80
2019-05-13T02:10:47.582Z,115.60
2019-05-13T02:11:23.897Z,112.60
2019-05-13T02:11:58.075Z,114.30
2019-05-13T02:12:34.015Z,127.00
2019-05-13T02:13:08.638Z,145.30
2019-05-13T02:13:44.638Z,134.90
2019-05-13T02:14:19.307Z,122.60
2019-05-13T02:14:54.601Z,111.50
2019-05-13T02:15:29.984Z,119.00
2019-05-13T02:16:05.392Z,115.10
2019-05-13T02:16:40.663Z,130.40
2019-05-13T02:17:15.880Z,117.60
2019-05-13T02:17:53.670Z,96.50
2019-05-13T02:18:26.667Z,106.00
2019-05-13T02:19:03.940Z,115.60
2019-05-13T02:19:37.266Z,117.80
2019-05-13T02:20:14.497Z,122.10
2019-05-13T02:20:47.725Z,105.20
2019-05-13T02:21:24.170Z,119.50
2019-05-13T02:21:58.456Z,115.00
2019-05-13T02:22:33.858Z,116.10
2019-05-13T02:23:09.036Z,118.10
2019-05-13T02:23:44.415Z,108.70
2019-05-13T02:24:19.416Z,109.80
2019-05-13T02:24:55.034Z,121.10
2019-05-13T02:25:30.201Z,134.70
2019-05-13T02:26:05.550Z,122.10
2019-05-13T02:26:40.857Z,134.10
2019-05-13T02:27:16.427Z,123.60
2019-05-13T02:27:54.124Z,102.90
2019-05-13T02:28:27.221Z,110.80
2019-05-13T02:29:03.729Z,116.30
2019-05-13T02:29:38.120Z,125.50
2019-05-13T02:30:15.970Z,129.90
2019-05-13T02:30:48.794Z,114.50
2019-05-13T02:31:39.075Z,105.00
2019-05-13T02:32:02.372Z,113.50
2019-05-13T02:32:34.697Z,125.00
2019-05-13T02:33:12.894Z,127.30
2019-05-13T02:33:45.484Z,132.70
2019-05-13T02:34:23.258Z,126.20
2019-05-13T02:34:56.081Z,110.30
2019-05-13T02:35:32.568Z,123.70
2019-05-13T02:36:06.784Z,130.00
2019-05-13T02:36:43.876Z,131.90
2019-05-13T02:37:17.571Z,122.90
2019-05-13T02:37:52.870Z,111.40
2019-05-13T02:38:30.611Z,126.90
2019-05-13T02:39:03.396Z,129.10
2019-05-13T02:39:39.043Z,127.00
2019-05-13T02:40:14.546Z,125.00
2019-05-13T02:40:52.410Z,127.50
2019-05-13T02:41:25.243Z,112.10
2019-05-13T02:42:03.035Z,101.00
2019-05-13T02:42:35.931Z,120.70
2019-05-13T02:43:13.608Z,119.30
2019-05-13T02:43:46.541Z,117.80
2019-05-13T02:44:22.573Z,107.10
2019-05-13T02:44:57.236Z,118.60
2019-05-13T02:45:33.314Z,116.40
2019-05-13T02:46:07.652Z,131.90
2019-05-13T02:46:44.310Z,123.80
2019-05-13T02:47:18.345Z,107.50
2019-05-13T02:47:53.846Z,119.50
2019-05-13T02:48:29.126Z,118.80
2019-05-13T02:49:04.640Z,131.50
2019-05-13T02:49:42.137Z,147.50
2019-05-13T02:50:15.325Z,141.30
2019-05-13T02:50:52.915Z,126.10
2019-05-13T02:51:26.131Z,101.90
2019-05-13T02:52:02.825Z,104.80
2019-05-13T02:52:36.942Z,99.10
2019-05-13T02:53:13.622Z,108.20
2019-05-13T02:53:47.814Z,138.80
2019-05-13T02:54:23.156Z,131.80
2019-05-13T02:54:58.613Z,120.30
2019-05-13T02:55:34.218Z,98.70
2019-05-13T02:56:11.702Z,103.20
2019-05-13T02:56:45.149Z,115.50
2019-05-13T02:57:23.040Z,118.60
2019-05-13T02:57:55.938Z,123.00
2019-05-13T02:58:33.361Z,115.80
2019-05-13T02:59:06.906Z,112.10
2019-05-13T02:59:42.401Z,126.80
2019-05-13T03:00:17.485Z,114.00
2019-05-13T03:00:53.821Z,100.00
2019-05-13T03:01:28.269Z,104.70
2019-05-13T03:02:04.129Z,107.60
2019-05-13T03:02:39.228Z,102.40
2019-05-13T03:03:14.553Z,102.00
2019-05-13T03:03:52.775Z,100.80
2019-05-13T03:04:26.269Z,118.10
2019-05-13T03:05:03.216Z,120.80
2019-05-13T03:05:36.671Z,104.70
2019-05-13T03:06:13.226Z,116.30
2019-05-13T03:06:47.265Z,123.30
2019-05-13T03:07:23.278Z,113.40
2019-05-13T03:07:57.936Z,97.90
2019-05-13T03:08:43.731Z,104.30
2019-05-13T03:09:08.601Z,120.80
2019-05-13T03:09:44.065Z,116.90
2019-05-13T03:10:22.186Z,114.70
2019-05-13T03:10:54.432Z,118.50
2019-05-13T03:11:32.877Z,125.90
2019-05-13T03:12:05.255Z,124.40
2019-05-13T03:12:42.321Z,131.90
2019-05-13T03:13:16.029Z,120.20
2019-05-13T03:13:52.893Z,114.10
2019-05-13T03:14:26.519Z,119.70
2019-05-13T03:15:02.836Z,122.00
2019-05-13T03:15:37.310Z,130.30
2019-05-13T03:16:13.499Z,132.70
2019-05-13T03:16:48.015Z,131.20
2019-05-13T03:17:23.521Z,140.80
2019-05-13T03:17:58.916Z,138.20
2019-05-13T03:18:34.029Z,121.20
2019-05-13T03:19:09.435Z,118.70
2019-05-13T03:19:44.819Z,135.50
2019-05-13T03:20:22.433Z,144.90
2019-05-13T03:20:55.316Z,135.40
2019-05-13T03:21:32.614Z,115.20
2019-05-13T03:22:05.909Z,122.70
2019-05-13T03:22:43.325Z,110.00
2019-05-13T03:23:16.685Z,127.00
2019-05-13T03:23:52.628Z,125.60
2019-05-13T03:24:27.599Z,125.10
2019-05-13T03:25:03.327Z,123.60
2019-05-13T03:25:37.888Z,125.00
2019-05-13T03:26:13.570Z,117.90
2019-05-13T03:26:48.998Z,127.90
2019-05-13T03:27:25.402Z,126.50
2019-05-13T03:28:02.861Z,129.90
2019-05-13T03:28:35.214Z,120.40
2019-05-13T03:29:13.097Z,109.80
2019-05-13T03:29:45.579Z,120.40
2019-05-13T03:30:25.575Z,128.00
2019-05-13T03:30:56.739Z,112.30
2019-05-13T03:31:35.856Z,98.80
2019-05-13T03:32:07.413Z,121.60
2019-05-13T03:32:50.066Z,130.80
2019-05-13T03:33:19.089Z,131.90
2019-05-13T03:33:55.648Z,134.20
2019-05-13T03:34:27.741Z,131.10
2019-05-13T03:35:07.350Z,123.70
2019-05-13T03:35:38.293Z,135.20
2019-05-13T03:36:16.494Z,140.50
2019-05-13T03:36:48.809Z,129.80
2019-05-13T03:37:26.134Z,124.40
2019-05-13T03:37:59.383Z,131.10
2019-05-13T03:38:53.786Z,126.60
2019-05-13T03:39:14.432Z,132.30
2019-05-13T03:39:44.970Z,118.00
2019-05-13T03:40:23.208Z,104.00
2019-05-13T03:40:55.788Z,118.30
2019-05-13T03:41:32.993Z,123.40
2019-05-13T03:42:06.758Z,123.10
2019-05-13T03:42:42.526Z,129.50
2019-05-13T03:43:17.325Z,130.20
2019-05-13T03:43:53.310Z,128.00
2019-05-13T03:44:27.936Z,118.10
2019-05-13T03:45:03.262Z,130.40
2019-05-13T03:45:38.211Z,133.20
2019-05-13T03:46:13.437Z,118.50
2019-05-13T03:46:48.617Z,109.10
2019-05-13T03:47:24.019Z,117.20
2019-05-13T03:47:59.207Z,125.00
2019-05-13T03:48:34.596Z,128.50
2019-05-13T03:49:13.308Z,130.10
2019-05-13T03:49:45.299Z,122.80
2019-05-13T03:50:22.716Z,117.00
2019-05-13T03:50:55.979Z,126.70
2019-05-13T03:51:32.668Z,138.60
2019-05-13T03:52:06.518Z,120.70
2019-05-13T03:52:43.377Z,116.60
2019-05-13T03:53:17.108Z,108.60
2019-05-13T03:53:53.608Z,118.10
2019-05-13T03:54:28.192Z,126.70
2019-05-13T03:55:03.535Z,129.20
2019-05-13T03:55:38.807Z,118.50
2019-05-13T03:56:14.178Z,122.30
2019-05-13T03:56:52.796Z,117.70
2019-05-13T03:57:24.912Z,106.00
2019-05-13T03:58:03.031Z,101.10
2019-05-13T03:58:35.696Z,114.90
2019-05-13T03:59:13.320Z,113.00
2019-05-13T03:59:46.377Z,104.40
2019-05-13T04:00:23.538Z,111.10
2019-05-13T04:00:57.082Z,110.80
2019-05-13T04:01:32.815Z,118.90
2019-05-13T04:02:07.786Z,124.70
2019-05-13T04:02:43.166Z,120.90
2019-05-13T04:03:18.480Z,120.70
2019-05-13T04:03:54.087Z,121.30
2019-05-13T04:04:32.152Z,120.10
2019-05-13T04:05:04.536Z,124.10
2019-05-13T04:05:43.427Z,131.50
2019-05-13T04:06:15.578Z,133.90
2019-05-13T04:06:52.994Z,130.10
2019-05-13T04:07:26.499Z,135.20
2019-05-13T04:08:03.208Z,121.90
2019-05-13T04:08:37.070Z,131.50
2019-05-13T04:09:22.330Z,143.90
2019-05-13T04:09:48.058Z,146.50
2019-05-13T04:10:23.775Z,146.20
2019-05-13T04:10:59.058Z,141.00
2019-05-13T04:11:34.463Z,131.30
2019-05-13T04:12:09.535Z,137.70
2019-05-13T04:12:44.868Z,129.60
2019-05-13T04:13:22.980Z,111.30
2019-05-13T04:13:55.753Z,117.00
2019-05-13T04:14:33.455Z,112.90
2019-05-13T04:15:06.330Z,109.50
2019-05-13T04:15:42.802Z,117.40
2019-05-13T04:16:17.105Z,110.70
2019-05-13T04:16:53.114Z,111.30
2019-05-13T04:17:28.096Z,101.20
2019-05-13T04:18:03.374Z,99.00
2019-05-13T04:18:38.823Z,99.80
2019-05-13T04:19:14.029Z,92.80
2019-05-13T04:19:52.780Z,93.20
2019-05-13T04:20:24.696Z,92.70
2019-05-13T04:21:02.541Z,101.50
2019-05-13T04:21:35.177Z,102.60
2019-05-13T04:22:12.954Z,109.10
2019-05-13T04:22:45.651Z,107.60
2019-05-13T04:23:23.355Z,107.00
2019-05-13T04:23:56.160Z,93.30
2019-05-13T04:24:33.312Z,103.40
2019-05-13T04:25:06.437Z,99.60
2019-05-13T04:25:44.706Z,98.60
2019-05-13T04:26:17.242Z,108.40
2019-05-13T04:26:53.447Z,110.40
2019-05-13T04:27:28.226Z,115.90
2019-05-13T04:28:03.962Z,112.20
2019-05-13T04:28:39.346Z,97.60
2019-05-13T04:29:14.650Z,104.50
2019-05-13T04:29:52.773Z,126.90
2019-05-13T04:30:25.613Z,122.10
2019-05-13T04:31:03.463Z,121.00
2019-05-13T04:31:36.201Z,105.30
2019-05-13T04:32:12.601Z,109.90
2019-05-13T04:32:47.089Z,102.90
2019-05-13T04:33:23.197Z,93.20
2019-05-13T04:33:58.030Z,76.70
2019-05-13T04:34:33.957Z,96.80
2019-05-13T04:35:08.489Z,102.00
2019-05-13T04:35:43.688Z,104.40
2019-05-13T04:36:19.143Z,105.10
2019-05-13T04:36:54.459Z,97.60
2019-05-13T04:37:32.633Z,102.10
2019-05-13T04:38:09.248Z,97.90
2019-05-13T04:38:44.153Z,119.60
2019-05-13T04:39:35.145Z,102.80
2019-05-13T04:39:56.156Z,99.50
2019-05-13T04:40:27.365Z,114.20
2019-05-13T04:41:03.659Z,109.10
2019-05-13T04:41:38.016Z,101.40
2019-05-13T04:42:13.318Z,116.00
2019-05-13T04:42:48.782Z,123.80
2019-05-13T04:43:24.112Z,113.70
2019-05-13T04:44:02.312Z,114.00
2019-05-13T04:44:34.680Z,99.80
2019-05-13T04:45:13.005Z,110.80
2019-05-13T04:45:45.277Z,113.40
2019-05-13T04:46:22.763Z,102.90
2019-05-13T04:46:55.652Z,115.10
2019-05-13T04:47:33.268Z,107.00
2019-05-13T04:48:06.558Z,110.70
2019-05-13T04:48:44.123Z,103.00
2019-05-13T04:49:17.363Z,112.80
2019-05-13T04:49:53.576Z,123.70
2019-05-13T04:50:28.234Z,103.80
2019-05-13T04:51:03.613Z,81.70
2019-05-13T04:51:41.849Z,78.20
2019-05-13T04:52:14.315Z,93.60
2019-05-13T04:52:52.313Z,99.20
2019-05-13T04:53:24.855Z,105.20
2019-05-13T04:54:02.861Z,95.90
2019-05-13T04:54:35.683Z,91.40
2019-05-13T04:55:13.108Z,98.90
2019-05-13T04:55:46.080Z,88.00
2019-05-13T04:56:22.367Z,67.30
2019-05-13T04:56:57.060Z,71.60
2019-05-13T04:57:33.141Z,62.00
2019-05-13T04:58:07.978Z,55.40
2019-05-13T04:58:43.448Z,51.40
2019-05-13T04:59:18.463Z,68.50
2019-05-13T04:59:54.936Z,67.80
2019-05-13T05:00:32.152Z,60.30
2019-05-13T05:01:09.157Z,55.70
2019-05-13T05:01:52.220Z,45.90
2019-05-13T05:02:15.129Z,39.50
2019-05-13T05:02:54.740Z,37.90
2019-05-13T05:03:33.261Z,41.60
2019-05-13T05:04:03.437Z,49.80
2019-05-13T05:04:36.703Z,57.00
2019-05-13T05:05:13.031Z,57.60
2019-05-13T05:05:47.515Z,51.70
2019-05-13T05:06:22.913Z,58.30
2019-05-13T05:06:58.270Z,47.10
2019-05-13T05:07:33.639Z,30.10
2019-05-13T05:08:11.798Z,46.20
2019-05-13T05:08:47.433Z,57.20
2019-05-13T05:09:22.294Z,59.90
2019-05-13T05:10:15.802Z,51.60
2019-05-13T05:10:37.802Z,39.60
2019-05-13T05:11:05.406Z,47.10
2019-05-13T05:11:42.588Z,54.30
2019-05-13T05:12:16.374Z,48.30
2019-05-13T05:12:52.004Z,43.60
2019-05-13T05:13:27.093Z,35.10
2019-05-13T05:14:02.851Z,43.50
2019-05-13T05:14:38.161Z,53.70
2019-05-13T05:15:13.694Z,62.40
2019-05-13T05:15:48.872Z,52.80
2019-05-13T05:16:24.274Z,64.00
2019-05-13T05:17:02.914Z,50.70
2019-05-13T05:17:35.453Z,51.70
2019-05-13T05:18:11.633Z,54.90
2019-05-13T05:18:46.741Z,57.40
2019-05-13T05:19:23.827Z,42.00
2019-05-13T05:19:57.327Z,49.60
2019-05-13T05:20:32.410Z,57.20
2019-05-13T05:21:07.844Z,47.10
2019-05-13T05:21:43.327Z,45.90
2019-05-13T05:22:19.027Z,71.40
2019-05-13T05:22:54.110Z,47.20
2019-05-13T05:23:31.674Z,50.50
2019-05-13T05:24:04.551Z,46.10
2019-05-13T05:24:41.361Z,53.90
2019-05-13T05:25:15.252Z,55.90
2019-05-13T05:25:52.195Z,49.30
2019-05-13T05:26:25.961Z,40.60
2019-05-13T05:27:01.514Z,60.60
2019-05-13T05:27:36.610Z,54.30
2019-05-13T05:28:12.137Z,37.70
2019-05-13T05:28:47.336Z,36.00
2019-05-13T05:29:22.733Z,27.90
2019-05-13T05:29:58.240Z,38.40
2019-05-13T05:30:33.923Z,37.30
2019-05-13T05:31:11.404Z,27.40
2019-05-13T05:31:44.569Z,35.40
2019-05-13T05:32:21.444Z,33.10
2019-05-13T05:32:55.585Z,24.10
2019-05-13T05:33:31.925Z,21.10
2019-05-13T05:34:06.891Z,38.70
2019-05-13T05:34:41.930Z,35.20
2019-05-13T05:35:17.118Z,28.10
2019-05-13T05:35:52.502Z,24.20
2019-05-13T05:36:28.082Z,17.50
2019-05-13T05:37:03.262Z,16.20
2019-05-13T05:37:38.399Z,21.20
2019-05-13T05:38:14.337Z,28.80
2019-05-13T05:38:51.419Z,35.50
2019-05-13T05:39:25.137Z,32.60
2019-05-13T05:40:01.985Z,24.90
2019-05-13T05:40:35.725Z,44.90
2019-05-13T05:41:12.165Z,37.30
2019-05-13T05:41:46.789Z,39.80
2019-05-13T05:42:22.266Z,42.60
2019-05-13T05:42:57.609Z,30.90
2019-05-13T05:43:32.807Z,38.10
2019-05-13T05:44:07.925Z,32.00
2019-05-13T05:44:43.210Z,20.50
2019-05-13T05:45:18.422Z,15.80
2019-05-13T05:45:54.030Z,15.20
2019-05-13T05:46:32.192Z,16.90
2019-05-13T05:47:04.729Z,53.00
2019-05-13T05:47:41.768Z,41.90
2019-05-13T05:48:15.459Z,23.30
2019-05-13T05:48:52.829Z,16.10
2019-05-13T05:49:26.265Z,32.20
2019-05-13T05:50:03.049Z,33.00
2019-05-13T05:50:36.934Z,28.70
2019-05-13T05:51:13.204Z,29.00
2019-05-13T05:51:47.424Z,15.70
2019-05-13T05:52:22.854Z,31.40
2019-05-13T05:52:58.250Z,34.70
2019-05-13T05:53:33.567Z,30.90
2019-05-13T05:54:12.026Z,20.20
2019-05-13T05:54:44.454Z,17.60
2019-05-13T05:55:21.365Z,24.90
2019-05-13T05:55:55.357Z,32.70
2019-05-13T05:56:32.330Z,36.50
2019-05-13T05:57:05.736Z,30.80
2019-05-13T05:57:41.805Z,18.10
2019-05-13T05:58:16.660Z,43.60
2019-05-13T05:58:52.375Z,56.10
2019-05-13T05:59:27.254Z,68.50
2019-05-13T06:00:02.611Z,48.20
2019-05-13T06:00:37.968Z,39.10
2019-05-13T06:01:13.168Z,67.70
2019-05-13T06:01:48.541Z,71.80
2019-05-13T06:02:24.166Z,60.60
2019-05-13T06:03:02.402Z,44.00
2019-05-13T06:03:35.096Z,36.50
2019-05-13T06:04:12.604Z,58.40
2019-05-13T06:04:46.012Z,82.90
2019-05-13T06:05:21.488Z,72.60
2019-05-13T06:05:56.929Z,110.60
2019-05-13T06:06:32.918Z,110.90
2019-05-13T06:07:07.826Z,120.20
2019-05-13T06:07:43.335Z,114.70
2019-05-13T06:08:18.658Z,107.70
2019-05-13T06:08:54.060Z,96.60
2019-05-13T06:09:32.060Z,81.60
2019-05-13T06:10:04.580Z,111.70
2019-05-13T06:10:49.645Z,115.00
2019-05-13T06:11:15.393Z,77.50
2019-05-13T06:11:52.204Z,113.20
2019-05-13T06:12:25.899Z,95.40
2019-05-13T06:13:01.798Z,85.50
2019-05-13T06:13:36.657Z,65.60
2019-05-13T06:14:12.076Z,70.90
2019-05-13T06:14:47.480Z,75.00
2019-05-13T06:15:22.788Z,53.10
2019-05-13T06:15:58.447Z,56.50
2019-05-13T06:16:33.807Z,86.50
2019-05-13T06:17:11.370Z,97.90
2019-05-13T06:17:44.912Z,77.40
2019-05-13T06:18:22.012Z,93.20
2019-05-13T06:18:55.483Z,71.90
2019-05-13T06:19:31.796Z,55.50
2019-05-13T06:20:05.897Z,77.30
2019-05-13T06:20:41.813Z,91.20
2019-05-13T06:21:16.505Z,66.70
2019-05-13T06:21:51.835Z,61.50
2019-05-13T06:22:27.370Z,94.00
2019-05-13T06:23:02.725Z,79.90
2019-05-13T06:23:37.837Z,95.50
2019-05-13T06:24:13.330Z,73.50
2019-05-13T06:24:48.954Z,139.10
2019-05-13T06:25:24.576Z,108.00
2019-05-13T06:26:01.689Z,108.20
2019-05-13T06:26:35.166Z,107.90
2019-05-13T06:27:11.870Z,123.20
2019-05-13T06:27:45.957Z,96.40
2019-05-13T06:28:21.689Z,77.30
2019-05-13T06:28:56.878Z,75.80
2019-05-13T06:29:32.711Z,87.40
2019-05-13T06:30:07.931Z,91.90
2019-05-13T06:30:43.122Z,79.70
2019-05-13T06:31:18.527Z,81.10
2019-05-13T06:31:53.732Z,83.60
2019-05-13T06:32:31.253Z,113.40
2019-05-13T06:33:04.368Z,115.10
2019-05-13T06:33:42.050Z,103.00
2019-05-13T06:34:14.843Z,106.30
2019-05-13T06:34:52.513Z,85.20
2019-05-13T06:35:25.763Z,113.00
2019-05-13T06:36:01.255Z,142.20
2019-05-13T06:36:36.089Z,113.80
2019-05-13T06:37:11.585Z,117.50
2019-05-13T06:37:47.019Z,105.50
2019-05-13T06:38:22.682Z,112.80
2019-05-13T06:38:57.752Z,116.10
2019-05-13T06:39:33.080Z,62.10
2019-05-13T06:40:08.456Z,61.60
2019-05-13T06:40:57.977Z,72.70
2019-05-13T06:41:19.305Z,81.40
2019-05-13T06:41:54.729Z,59.20
2019-05-13T06:42:32.398Z,61.30
2019-05-13T06:43:05.876Z,61.00
2019-05-13T06:43:41.892Z,85.50
2019-05-13T06:44:16.478Z,109.00
2019-05-13T06:44:51.971Z,61.80
2019-05-13T06:45:27.491Z,52.50
2019-05-13T06:46:02.717Z,52.30
2019-05-13T06:46:38.414Z,84.90
2019-05-13T06:47:13.629Z,74.70
2019-05-13T06:47:49.149Z,62.10
2019-05-13T06:48:24.586Z,38.30
2019-05-13T06:49:00.089Z,53.40
2019-05-13T06:49:35.309Z,65.50
2019-05-13T06:50:11.643Z,64.00
2019-05-13T06:50:45.726Z,63.30
2019-05-13T06:51:22.188Z,44.40
2019-05-13T06:51:56.647Z,30.80
2019-05-13T06:52:32.247Z,64.70
2019-05-13T06:53:08.585Z,66.60
2019-05-13T06:53:42.855Z,69.90
2019-05-13T06:54:17.947Z,76.10
2019-05-13T06:54:53.392Z,51.10
2019-05-13T06:55:28.880Z,35.90
2019-05-13T06:56:04.197Z,53.90
2019-05-13T06:56:42.618Z,60.90
2019-05-13T06:57:15.219Z,61.70
2019-05-13T06:57:51.782Z,45.50
2019-05-13T06:58:26.284Z,88.60
2019-05-13T06:59:01.792Z,51.90
2019-05-13T06:59:37.236Z,64.60
2019-05-13T07:00:12.647Z,54.70
2019-05-13T07:00:48.065Z,53.00
2019-05-13T07:01:23.457Z,48.50
2019-05-13T07:01:59.061Z,54.80
2019-05-13T07:02:34.471Z,47.10
2019-05-13T07:03:12.540Z,72.50
2019-05-13T07:03:45.412Z,65.40
2019-05-13T07:04:21.896Z,55.10
2019-05-13T07:04:56.416Z,57.10
2019-05-13T07:05:31.941Z,43.80
2019-05-13T07:06:07.186Z,39.20
2019-05-13T07:06:42.687Z,96.50
2019-05-13T07:07:17.910Z,99.50
2019-05-13T07:07:53.302Z,94.00
2019-05-13T07:08:28.646Z,66.60
2019-05-13T07:09:04.130Z,55.80
2019-05-13T07:09:42.447Z,84.20
2019-05-13T07:10:14.761Z,79.20
2019-05-13T07:10:51.527Z,74.50
2019-05-13T07:11:25.569Z,49.40
2019-05-13T07:12:03.135Z,38.80
2019-05-13T07:12:36.516Z,62.70
2019-05-13T07:13:11.934Z,54.90
2019-05-13T07:13:47.345Z,58.10
2019-05-13T07:14:22.532Z,64.60
2019-05-13T07:14:57.839Z,59.20
2019-05-13T07:15:33.352Z,43.90
2019-05-13T07:16:08.580Z,91.80
2019-05-13T07:16:43.916Z,81.70
2019-05-13T07:17:22.055Z,104.70
2019-05-13T07:17:54.467Z,73.60
2019-05-13T07:18:32.169Z,57.20
2019-05-13T07:19:05.084Z,60.20
2019-05-13T07:19:41.448Z,47.80
2019-05-13T07:20:16.542Z,37.60
2019-05-13T07:20:53.054Z,54.20
2019-05-13T07:21:26.977Z,81.30
2019-05-13T07:22:03.080Z,91.00
2019-05-13T07:22:37.498Z,78.80
2019-05-13T07:23:12.857Z,61.00
2019-05-13T07:23:51.095Z,42.60
2019-05-13T07:24:24.105Z,76.50
2019-05-13T07:25:02.357Z,76.70
2019-05-13T07:25:35.530Z,83.00